sensor_id;sensor_type;location;lat;lon;timestamp;temperature;humidity
31979;DHT22;18502;43.574;1.276;2023-04-24T00:02:23;10.60;99.90
31979;DHT22;18502;43.574;1.276;2023-04-24T00:04:49;10.70;99.90
31979;DHT22;18502;43.574;1.276;2023-04-24T00:07:15;10.80;99.90
31979;DHT22;18502;43.574;1.276;2023-04-24T00:09:45;10.90;99.90
31979;DHT22;18502;43.574;1.276;2023-04-24T00:12:11;11.00;99.90
31979;DHT22;18502;43.574;1.276;2023-04-24T00:14:36;10.90;99.90
31979;DHT22;18502;43.574;1.276;2023-04-24T00:17:02;10.80;99.90
31979;DHT22;18502;43.574;1.276;2023-04-24T00:19:28;10.70;99.90
31979;DHT22;18502;43.574;1.276;2023-04-24T00:21:54;10.60;99.90
31979;DHT22;18502;43.574;1.276;2023-04-24T00:24:20;10.50;99.90
31979;DHT22;18502;43.574;1.276;2023-04-24T00:26:46;10.50;99.90
31979;DHT22;18502;43.574;1.276;2023-04-24T00:29:12;10.30;99.90
31979;DHT22;18502;43.574;1.276;2023-04-24T00:31:37;10.40;99.90
31979;DHT22;18502;43.574;1.276;2023-04-24T00:34:03;10.50;99.90
31979;DHT22;18502;43.574;1.276;2023-04-24T00:36:30;10.40;99.90
31979;DHT22;18502;43.574;1.276;2023-04-24T00:38:56;10.20;99.90
31979;DHT22;18502;43.574;1.276;2023-04-24T00:41:22;10.10;99.90
31979;DHT22;18502;43.574;1.276;2023-04-24T00:43:48;9.90;99.90
31979;DHT22;18502;43.574;1.276;2023-04-24T00:46:14;10.00;99.90
31979;DHT22;18502;43.574;1.276;2023-04-24T00:48:40;9.90;99.90
31979;DHT22;18502;43.574;1.276;2023-04-24T00:51:07;9.90;99.90
31979;DHT22;18502;43.574;1.276;2023-04-24T00:53:32;10.00;99.90
31979;DHT22;18502;43.574;1.276;2023-04-24T00:55:58;10.10;99.90
31979;DHT22;18502;43.574;1.276;2023-04-24T00:58:25;10.40;99.90
31979;DHT22;18502;43.574;1.276;2023-04-24T01:00:53;10.40;99.90
31979;DHT22;18502;43.574;1.276;2023-04-24T01:03:25;10.40;99.90
31979;DHT22;18502;43.574;1.276;2023-04-24T01:05:52;10.30;99.90
31979;DHT22;18502;43.574;1.276;2023-04-24T01:08:22;10.10;99.90
31979;DHT22;18502;43.574;1.276;2023-04-24T01:10:52;10.10;99.90
31979;DHT22;18502;43.574;1.276;2023-04-24T01:13:19;10.00;99.90
31979;DHT22;18502;43.574;1.276;2023-04-24T01:15:46;10.20;99.90
31979;DHT22;18502;43.574;1.276;2023-04-24T01:18:12;10.30;99.90
31979;DHT22;18502;43.574;1.276;2023-04-24T01:20:40;10.40;99.90
31979;DHT22;18502;43.574;1.276;2023-04-24T01:23:07;10.60;99.90
31979;DHT22;18502;43.574;1.276;2023-04-24T01:25:33;10.60;99.90
31979;DHT22;18502;43.574;1.276;2023-04-24T01:28:00;10.70;99.90
31979;DHT22;18502;43.574;1.276;2023-04-24T01:30:26;10.60;99.90
31979;DHT22;18502;43.574;1.276;2023-04-24T01:32:53;10.50;99.90
31979;DHT22;18502;43.574;1.276;2023-04-24T01:35:19;10.40;99.90
31979;DHT22;18502;43.574;1.276;2023-04-24T01:37:45;10.40;99.90
31979;DHT22;18502;43.574;1.276;2023-04-24T01:40:11;10.30;99.90
31979;DHT22;18502;43.574;1.276;2023-04-24T01:42:36;10.40;99.90
31979;DHT22;18502;43.574;1.276;2023-04-24T01:45:04;10.30;99.90
31979;DHT22;18502;43.574;1.276;2023-04-24T01:47:31;10.10;99.90
31979;DHT22;18502;43.574;1.276;2023-04-24T01:49:57;10.00;99.90
31979;DHT22;18502;43.574;1.276;2023-04-24T01:52:23;9.90;99.90
31979;DHT22;18502;43.574;1.276;2023-04-24T01:54:49;9.80;99.90
31979;DHT22;18502;43.574;1.276;2023-04-24T01:57:14;9.90;99.90
31979;DHT22;18502;43.574;1.276;2023-04-24T01:59:41;9.80;99.90
31979;DHT22;18502;43.574;1.276;2023-04-24T02:02:07;9.80;99.90
31979;DHT22;18502;43.574;1.276;2023-04-24T02:04:32;9.70;99.90
31979;DHT22;18502;43.574;1.276;2023-04-24T02:06:58;9.60;99.90
31979;DHT22;18502;43.574;1.276;2023-04-24T02:09:24;9.60;99.90
31979;DHT22;18502;43.574;1.276;2023-04-24T02:11:50;9.50;99.90
31979;DHT22;18502;43.574;1.276;2023-04-24T02:14:16;9.40;99.90
31979;DHT22;18502;43.574;1.276;2023-04-24T02:16:41;9.50;99.90
31979;DHT22;18502;43.574;1.276;2023-04-24T02:19:07;9.40;99.90
31979;DHT22;18502;43.574;1.276;2023-04-24T02:21:33;9.50;99.90
31979;DHT22;18502;43.574;1.276;2023-04-24T02:23:59;9.50;99.90
31979;DHT22;18502;43.574;1.276;2023-04-24T02:26:25;9.60;99.90
31979;DHT22;18502;43.574;1.276;2023-04-24T02:28:51;9.60;99.90
31979;DHT22;18502;43.574;1.276;2023-04-24T02:31:17;9.60;99.90
31979;DHT22;18502;43.574;1.276;2023-04-24T02:33:42;9.60;99.90
31979;DHT22;18502;43.574;1.276;2023-04-24T02:36:08;9.60;99.90
31979;DHT22;18502;43.574;1.276;2023-04-24T02:38:34;9.70;99.90
31979;DHT22;18502;43.574;1.276;2023-04-24T02:41:00;9.80;99.90
31979;DHT22;18502;43.574;1.276;2023-04-24T02:43:27;9.80;99.90
31979;DHT22;18502;43.574;1.276;2023-04-24T02:45:53;9.90;99.90
31979;DHT22;18502;43.574;1.276;2023-04-24T02:48:18;9.90;99.90
31979;DHT22;18502;43.574;1.276;2023-04-24T02:50:46;10.00;99.90
31979;DHT22;18502;43.574;1.276;2023-04-24T02:53:11;10.00;99.90
31979;DHT22;18502;43.574;1.276;2023-04-24T02:55:37;10.10;99.90
31979;DHT22;18502;43.574;1.276;2023-04-24T02:58:03;10.10;99.90
31979;DHT22;18502;43.574;1.276;2023-04-24T03:00:28;10.20;99.90
31979;DHT22;18502;43.574;1.276;2023-04-24T03:02:55;10.20;99.90
31979;DHT22;18502;43.574;1.276;2023-04-24T03:05:21;10.30;99.90
31979;DHT22;18502;43.574;1.276;2023-04-24T03:07:46;10.30;99.90
31979;DHT22;18502;43.574;1.276;2023-04-24T03:10:12;10.30;99.90
31979;DHT22;18502;43.574;1.276;2023-04-24T03:12:38;10.30;99.90
31979;DHT22;18502;43.574;1.276;2023-04-24T03:15:04;10.20;99.90
31979;DHT22;18502;43.574;1.276;2023-04-24T03:17:30;10.10;99.90
31979;DHT22;18502;43.574;1.276;2023-04-24T03:19:55;10.00;99.90
31979;DHT22;18502;43.574;1.276;2023-04-24T03:22:21;10.00;99.90
31979;DHT22;18502;43.574;1.276;2023-04-24T03:24:47;10.00;99.90
31979;DHT22;18502;43.574;1.276;2023-04-24T03:27:12;9.90;99.90
31979;DHT22;18502;43.574;1.276;2023-04-24T03:29:38;9.90;99.90
31979;DHT22;18502;43.574;1.276;2023-04-24T03:32:04;9.90;99.90
31979;DHT22;18502;43.574;1.276;2023-04-24T03:34:29;9.90;99.90
31979;DHT22;18502;43.574;1.276;2023-04-24T03:36:55;10.10;99.90
31979;DHT22;18502;43.574;1.276;2023-04-24T03:39:20;10.10;99.90
31979;DHT22;18502;43.574;1.276;2023-04-24T03:41:46;10.20;99.90
31979;DHT22;18502;43.574;1.276;2023-04-24T03:44:12;10.30;99.90
31979;DHT22;18502;43.574;1.276;2023-04-24T03:46:37;10.30;99.90
31979;DHT22;18502;43.574;1.276;2023-04-24T03:49:03;10.40;99.90
31979;DHT22;18502;43.574;1.276;2023-04-24T03:51:29;10.40;99.90
31979;DHT22;18502;43.574;1.276;2023-04-24T03:53:56;10.40;99.90
31979;DHT22;18502;43.574;1.276;2023-04-24T03:56:21;10.40;99.90
31979;DHT22;18502;43.574;1.276;2023-04-24T03:58:47;10.40;99.90
31979;DHT22;18502;43.574;1.276;2023-04-24T04:01:13;10.40;99.90
31979;DHT22;18502;43.574;1.276;2023-04-24T04:03:41;10.40;99.90
31979;DHT22;18502;43.574;1.276;2023-04-24T04:06:07;10.40;99.90
31979;DHT22;18502;43.574;1.276;2023-04-24T04:08:32;10.40;99.90
31979;DHT22;18502;43.574;1.276;2023-04-24T04:10:58;10.40;99.90
31979;DHT22;18502;43.574;1.276;2023-04-24T04:13:24;10.50;99.90
31979;DHT22;18502;43.574;1.276;2023-04-24T04:15:49;10.50;99.90
31979;DHT22;18502;43.574;1.276;2023-04-24T04:18:15;10.50;99.90
31979;DHT22;18502;43.574;1.276;2023-04-24T04:20:41;10.40;99.90
31979;DHT22;18502;43.574;1.276;2023-04-24T04:23:07;10.40;99.90
31979;DHT22;18502;43.574;1.276;2023-04-24T04:25:33;10.50;99.90
31979;DHT22;18502;43.574;1.276;2023-04-24T04:27:58;10.40;99.90
31979;DHT22;18502;43.574;1.276;2023-04-24T04:30:25;10.50;99.90
31979;DHT22;18502;43.574;1.276;2023-04-24T04:32:51;10.40;99.90
31979;DHT22;18502;43.574;1.276;2023-04-24T04:35:17;10.40;99.90
31979;DHT22;18502;43.574;1.276;2023-04-24T04:37:42;10.40;99.90
31979;DHT22;18502;43.574;1.276;2023-04-24T04:40:08;10.50;99.90
31979;DHT22;18502;43.574;1.276;2023-04-24T04:42:37;10.50;99.90
31979;DHT22;18502;43.574;1.276;2023-04-24T04:45:07;10.40;99.90
31979;DHT22;18502;43.574;1.276;2023-04-24T04:47:34;10.40;99.90
31979;DHT22;18502;43.574;1.276;2023-04-24T04:50:00;10.30;99.90
31979;DHT22;18502;43.574;1.276;2023-04-24T04:52:26;10.30;99.90
31979;DHT22;18502;43.574;1.276;2023-04-24T04:54:52;10.40;99.90
31979;DHT22;18502;43.574;1.276;2023-04-24T04:57:18;10.40;99.90
31979;DHT22;18502;43.574;1.276;2023-04-24T04:59:43;10.50;99.90
31979;DHT22;18502;43.574;1.276;2023-04-24T05:02:09;10.50;99.90
31979;DHT22;18502;43.574;1.276;2023-04-24T05:04:35;10.50;99.90
31979;DHT22;18502;43.574;1.276;2023-04-24T05:07:00;10.50;99.90
31979;DHT22;18502;43.574;1.276;2023-04-24T05:09:26;10.50;99.90
31979;DHT22;18502;43.574;1.276;2023-04-24T05:11:54;10.50;99.90
31979;DHT22;18502;43.574;1.276;2023-04-24T05:14:19;10.40;99.90
31979;DHT22;18502;43.574;1.276;2023-04-24T05:16:46;10.40;99.90
31979;DHT22;18502;43.574;1.276;2023-04-24T05:19:11;10.50;99.90
31979;DHT22;18502;43.574;1.276;2023-04-24T05:21:39;10.40;99.90
31979;DHT22;18502;43.574;1.276;2023-04-24T05:24:06;10.40;99.90
31979;DHT22;18502;43.574;1.276;2023-04-24T05:26:32;10.40;99.90
31979;DHT22;18502;43.574;1.276;2023-04-24T05:28:58;10.50;99.90
31979;DHT22;18502;43.574;1.276;2023-04-24T05:31:24;10.50;99.90
31979;DHT22;18502;43.574;1.276;2023-04-24T05:33:50;10.50;99.90
31979;DHT22;18502;43.574;1.276;2023-04-24T05:36:16;10.50;99.90
31979;DHT22;18502;43.574;1.276;2023-04-24T05:38:42;10.50;99.90
31979;DHT22;18502;43.574;1.276;2023-04-24T05:41:07;10.60;99.90
31979;DHT22;18502;43.574;1.276;2023-04-24T05:43:33;10.70;99.90
31979;DHT22;18502;43.574;1.276;2023-04-24T05:45:59;10.80;99.90
31979;DHT22;18502;43.574;1.276;2023-04-24T05:48:25;10.80;99.90
31979;DHT22;18502;43.574;1.276;2023-04-24T05:50:51;10.90;99.90
31979;DHT22;18502;43.574;1.276;2023-04-24T05:53:18;11.00;99.90
31979;DHT22;18502;43.574;1.276;2023-04-24T05:55:44;11.10;99.90
31979;DHT22;18502;43.574;1.276;2023-04-24T05:58:10;11.20;99.90
31979;DHT22;18502;43.574;1.276;2023-04-24T06:00:36;11.20;99.90
31979;DHT22;18502;43.574;1.276;2023-04-24T06:03:02;11.20;99.90
31979;DHT22;18502;43.574;1.276;2023-04-24T06:05:29;11.30;99.90
31979;DHT22;18502;43.574;1.276;2023-04-24T06:07:55;11.50;99.90
31979;DHT22;18502;43.574;1.276;2023-04-24T06:10:21;11.50;99.90
31979;DHT22;18502;43.574;1.276;2023-04-24T06:12:46;11.60;99.90
31979;DHT22;18502;43.574;1.276;2023-04-24T06:15:12;11.80;99.90
31979;DHT22;18502;43.574;1.276;2023-04-24T06:17:38;12.00;99.90
31979;DHT22;18502;43.574;1.276;2023-04-24T06:20:04;12.20;99.90
31979;DHT22;18502;43.574;1.276;2023-04-24T06:22:31;12.30;99.90
31979;DHT22;18502;43.574;1.276;2023-04-24T06:24:57;12.30;99.90
31979;DHT22;18502;43.574;1.276;2023-04-24T06:27:22;12.30;99.90
31979;DHT22;18502;43.574;1.276;2023-04-24T06:29:48;12.40;99.90
31979;DHT22;18502;43.574;1.276;2023-04-24T06:32:23;12.40;99.90
31979;DHT22;18502;43.574;1.276;2023-04-24T06:34:50;12.40;99.90
31979;DHT22;18502;43.574;1.276;2023-04-24T06:37:16;12.40;99.90
31979;DHT22;18502;43.574;1.276;2023-04-24T06:39:42;12.40;99.90
31979;DHT22;18502;43.574;1.276;2023-04-24T06:42:08;12.40;99.90
31979;DHT22;18502;43.574;1.276;2023-04-24T06:44:35;12.40;99.90
31979;DHT22;18502;43.574;1.276;2023-04-24T06:47:09;12.50;99.90
31979;DHT22;18502;43.574;1.276;2023-04-24T06:49:36;12.50;99.90
31979;DHT22;18502;43.574;1.276;2023-04-24T06:52:02;12.50;99.90
31979;DHT22;18502;43.574;1.276;2023-04-24T06:54:28;12.50;99.90
31979;DHT22;18502;43.574;1.276;2023-04-24T06:56:54;12.50;99.90
31979;DHT22;18502;43.574;1.276;2023-04-24T06:59:20;12.60;99.90
31979;DHT22;18502;43.574;1.276;2023-04-24T07:01:46;13.10;99.90
31979;DHT22;18502;43.574;1.276;2023-04-24T07:04:12;13.30;99.90
31979;DHT22;18502;43.574;1.276;2023-04-24T07:06:38;13.30;99.90
31979;DHT22;18502;43.574;1.276;2023-04-24T07:09:04;13.10;99.90
31979;DHT22;18502;43.574;1.276;2023-04-24T07:11:30;12.50;99.90
31979;DHT22;18502;43.574;1.276;2023-04-24T07:13:56;12.80;99.90
31979;DHT22;18502;43.574;1.276;2023-04-24T07:16:22;12.90;99.90
31979;DHT22;18502;43.574;1.276;2023-04-24T07:18:48;13.00;99.90
31979;DHT22;18502;43.574;1.276;2023-04-24T07:21:14;12.70;99.90
31979;DHT22;18502;43.574;1.276;2023-04-24T07:23:39;12.70;99.90
31979;DHT22;18502;43.574;1.276;2023-04-24T07:26:06;12.70;99.90
31979;DHT22;18502;43.574;1.276;2023-04-24T07:28:32;12.40;99.90
31979;DHT22;18502;43.574;1.276;2023-04-24T07:30:58;12.60;99.90
31979;DHT22;18502;43.574;1.276;2023-04-24T07:33:28;12.70;99.90
31979;DHT22;18502;43.574;1.276;2023-04-24T07:35:53;12.90;99.90
31979;DHT22;18502;43.574;1.276;2023-04-24T07:38:19;13.20;99.90
31979;DHT22;18502;43.574;1.276;2023-04-24T07:40:48;13.60;99.90
31979;DHT22;18502;43.574;1.276;2023-04-24T07:43:14;13.50;99.90
31979;DHT22;18502;43.574;1.276;2023-04-24T07:45:40;13.20;99.90
31979;DHT22;18502;43.574;1.276;2023-04-24T07:48:06;13.10;99.90
31979;DHT22;18502;43.574;1.276;2023-04-24T07:50:32;13.10;99.90
31979;DHT22;18502;43.574;1.276;2023-04-24T07:52:57;13.40;99.90
31979;DHT22;18502;43.574;1.276;2023-04-24T07:55:23;13.90;99.90
31979;DHT22;18502;43.574;1.276;2023-04-24T07:57:49;14.20;99.90
31979;DHT22;18502;43.574;1.276;2023-04-24T08:00:15;14.10;99.90
31979;DHT22;18502;43.574;1.276;2023-04-24T08:02:41;14.40;99.90
31979;DHT22;18502;43.574;1.276;2023-04-24T08:05:07;14.50;99.90
31979;DHT22;18502;43.574;1.276;2023-04-24T08:07:33;14.60;99.90
31979;DHT22;18502;43.574;1.276;2023-04-24T08:09:58;14.20;99.90
31979;DHT22;18502;43.574;1.276;2023-04-24T08:12:25;13.70;99.90
31979;DHT22;18502;43.574;1.276;2023-04-24T08:14:50;13.80;99.90
31979;DHT22;18502;43.574;1.276;2023-04-24T08:17:17;14.00;99.90
31979;DHT22;18502;43.574;1.276;2023-04-24T08:19:43;14.20;99.90
31979;DHT22;18502;43.574;1.276;2023-04-24T08:22:13;14.60;99.90
31979;DHT22;18502;43.574;1.276;2023-04-24T08:24:38;14.80;99.90
31979;DHT22;18502;43.574;1.276;2023-04-24T08:27:04;14.00;99.90
31979;DHT22;18502;43.574;1.276;2023-04-24T08:29:30;14.20;99.90
31979;DHT22;18502;43.574;1.276;2023-04-24T08:31:56;14.40;99.90
31979;DHT22;18502;43.574;1.276;2023-04-24T08:34:22;15.30;99.90
31979;DHT22;18502;43.574;1.276;2023-04-24T08:36:48;15.80;99.90
31979;DHT22;18502;43.574;1.276;2023-04-24T08:39:14;15.50;99.90
31979;DHT22;18502;43.574;1.276;2023-04-24T08:41:42;15.20;99.90
31979;DHT22;18502;43.574;1.276;2023-04-24T08:44:11;14.90;99.90
31979;DHT22;18502;43.574;1.276;2023-04-24T08:46:39;14.70;99.90
31979;DHT22;18502;43.574;1.276;2023-04-24T08:49:05;14.80;99.90
31979;DHT22;18502;43.574;1.276;2023-04-24T08:51:31;15.10;99.90
31979;DHT22;18502;43.574;1.276;2023-04-24T08:53:57;15.00;99.90
31979;DHT22;18502;43.574;1.276;2023-04-24T08:56:23;15.00;99.90
31979;DHT22;18502;43.574;1.276;2023-04-24T08:58:53;15.70;99.90
31979;DHT22;18502;43.574;1.276;2023-04-24T09:01:20;15.60;99.90
31979;DHT22;18502;43.574;1.276;2023-04-24T09:03:48;16.00;99.90
31979;DHT22;18502;43.574;1.276;2023-04-24T09:06:16;16.70;99.90
31979;DHT22;18502;43.574;1.276;2023-04-24T09:08:43;16.80;99.90
31979;DHT22;18502;43.574;1.276;2023-04-24T09:11:11;16.70;99.90
31979;DHT22;18502;43.574;1.276;2023-04-24T09:13:37;16.90;99.90
31979;DHT22;18502;43.574;1.276;2023-04-24T09:16:03;16.70;99.90
31979;DHT22;18502;43.574;1.276;2023-04-24T09:18:29;16.50;99.90
31979;DHT22;18502;43.574;1.276;2023-04-24T09:21:07;16.80;99.90
31979;DHT22;18502;43.574;1.276;2023-04-24T09:23:33;17.50;99.90
31979;DHT22;18502;43.574;1.276;2023-04-24T09:26:00;16.90;99.90
31979;DHT22;18502;43.574;1.276;2023-04-24T09:28:37;16.60;99.90
31979;DHT22;18502;43.574;1.276;2023-04-24T09:31:15;17.00;99.90
31979;DHT22;18502;43.574;1.276;2023-04-24T09:34:04;17.30;99.90
31979;DHT22;18502;43.574;1.276;2023-04-24T09:36:37;17.30;99.90
31979;DHT22;18502;43.574;1.276;2023-04-24T09:39:11;17.30;99.90
31979;DHT22;18502;43.574;1.276;2023-04-24T09:41:51;16.80;99.90
31979;DHT22;18502;43.574;1.276;2023-04-24T09:44:21;16.60;99.90
31979;DHT22;18502;43.574;1.276;2023-04-24T09:49:26;17.60;99.90
31979;DHT22;18502;43.574;1.276;2023-04-24T09:52:04;17.50;99.90
31979;DHT22;18502;43.574;1.276;2023-04-24T09:54:30;17.20;99.90
31979;DHT22;18502;43.574;1.276;2023-04-24T09:56:56;17.30;99.90
31979;DHT22;18502;43.574;1.276;2023-04-24T09:59:22;17.90;99.90
31979;DHT22;18502;43.574;1.276;2023-04-24T10:01:48;18.60;99.90
31979;DHT22;18502;43.574;1.276;2023-04-24T10:04:18;17.40;99.90
31979;DHT22;18502;43.574;1.276;2023-04-24T10:06:44;17.20;99.90
31979;DHT22;18502;43.574;1.276;2023-04-24T10:09:10;17.80;99.90
31979;DHT22;18502;43.574;1.276;2023-04-24T10:11:43;16.80;99.90
31979;DHT22;18502;43.574;1.276;2023-04-24T10:14:18;17.80;99.90
31979;DHT22;18502;43.574;1.276;2023-04-24T10:16:44;19.10;99.90
31979;DHT22;18502;43.574;1.276;2023-04-24T10:19:12;19.90;99.90
31979;DHT22;18502;43.574;1.276;2023-04-24T10:21:40;19.70;99.90
31979;DHT22;18502;43.574;1.276;2023-04-24T10:24:12;19.50;99.90
31979;DHT22;18502;43.574;1.276;2023-04-24T10:26:38;20.10;99.90
31979;DHT22;18502;43.574;1.276;2023-04-24T10:29:06;19.90;99.90
31979;DHT22;18502;43.574;1.276;2023-04-24T10:31:38;19.80;99.90
31979;DHT22;18502;43.574;1.276;2023-04-24T10:34:08;20.80;99.90
31979;DHT22;18502;43.574;1.276;2023-04-24T10:36:38;21.30;99.90
31979;DHT22;18502;43.574;1.276;2023-04-24T10:39:08;21.50;99.90
31979;DHT22;18502;43.574;1.276;2023-04-24T10:41:37;20.80;99.90
31979;DHT22;18502;43.574;1.276;2023-04-24T10:44:09;20.50;99.90
31979;DHT22;18502;43.574;1.276;2023-04-24T10:46:38;20.10;99.90
31979;DHT22;18502;43.574;1.276;2023-04-24T10:49:07;19.40;99.90
31979;DHT22;18502;43.574;1.276;2023-04-24T10:51:47;18.50;99.90
31979;DHT22;18502;43.574;1.276;2023-04-24T10:54:27;17.80;99.90
31979;DHT22;18502;43.574;1.276;2023-04-24T10:59:39;17.90;99.90
31979;DHT22;18502;43.574;1.276;2023-04-24T11:02:07;18.40;99.90
31979;DHT22;18502;43.574;1.276;2023-04-24T11:04:33;19.10;99.90
31979;DHT22;18502;43.574;1.276;2023-04-24T11:07:00;19.40;99.90
31979;DHT22;18502;43.574;1.276;2023-04-24T11:09:27;19.40;99.90
31979;DHT22;18502;43.574;1.276;2023-04-24T11:12:04;20.00;99.90
31979;DHT22;18502;43.574;1.276;2023-04-24T11:17:38;19.70;99.90
31979;DHT22;18502;43.574;1.276;2023-04-24T11:20:10;18.80;99.90
31979;DHT22;18502;43.574;1.276;2023-04-24T11:22:38;19.00;99.90
31979;DHT22;18502;43.574;1.276;2023-04-24T11:25:06;19.80;99.90
31979;DHT22;18502;43.574;1.276;2023-04-24T11:27:39;20.60;99.90
31979;DHT22;18502;43.574;1.276;2023-04-24T11:30:05;21.10;99.90
31979;DHT22;18502;43.574;1.276;2023-04-24T11:32:35;21.50;99.90
31979;DHT22;18502;43.574;1.276;2023-04-24T11:35:03;21.60;99.90
31979;DHT22;18502;43.574;1.276;2023-04-24T11:37:37;21.50;99.90
31979;DHT22;18502;43.574;1.276;2023-04-24T11:40:06;20.80;99.90
31979;DHT22;18502;43.574;1.276;2023-04-24T11:42:36;20.50;99.90
31979;DHT22;18502;43.574;1.276;2023-04-24T11:45:11;20.60;99.90
31979;DHT22;18502;43.574;1.276;2023-04-24T11:47:38;20.50;99.90
31979;DHT22;18502;43.574;1.276;2023-04-24T11:50:06;20.10;99.90
31979;DHT22;18502;43.574;1.276;2023-04-24T11:52:36;20.30;99.90
31979;DHT22;18502;43.574;1.276;2023-04-24T11:55:02;20.40;99.90
31979;DHT22;18502;43.574;1.276;2023-04-24T11:57:29;20.40;99.90
31979;DHT22;18502;43.574;1.276;2023-04-24T12:00:02;20.20;99.90
31979;DHT22;18502;43.574;1.276;2023-04-24T12:02:44;20.50;99.90
31979;DHT22;18502;43.574;1.276;2023-04-24T12:05:27;21.80;98.70
31979;DHT22;18502;43.574;1.276;2023-04-24T12:07:53;23.20;96.50
31979;DHT22;18502;43.574;1.276;2023-04-24T12:10:24;26.20;93.50
31979;DHT22;18502;43.574;1.276;2023-04-24T12:12:50;24.10;90.00
31979;DHT22;18502;43.574;1.276;2023-04-24T12:15:20;22.50;94.40
31979;DHT22;18502;43.574;1.276;2023-04-24T12:17:47;24.30;93.40
31979;DHT22;18502;43.574;1.276;2023-04-24T12:20:14;26.20;86.10
31979;DHT22;18502;43.574;1.276;2023-04-24T12:25:12;33.40;61.70
31979;DHT22;18502;43.574;1.276;2023-04-24T12:27:38;30.10;62.00
31979;DHT22;18502;43.574;1.276;2023-04-24T12:30:05;30.20;59.20
31979;DHT22;18502;43.574;1.276;2023-04-24T12:32:31;32.50;55.60
31979;DHT22;18502;43.574;1.276;2023-04-24T12:34:57;34.20;52.60
31979;DHT22;18502;43.574;1.276;2023-04-24T12:37:33;35.80;45.00
31979;DHT22;18502;43.574;1.276;2023-04-24T12:40:07;34.90;45.90
31979;DHT22;18502;43.574;1.276;2023-04-24T12:42:34;37.20;42.40
31979;DHT22;18502;43.574;1.276;2023-04-24T12:45:03;33.20;43.80
31979;DHT22;18502;43.574;1.276;2023-04-24T12:47:31;31.10;47.80
31979;DHT22;18502;43.574;1.276;2023-04-24T12:49:57;30.00;50.60
31979;DHT22;18502;43.574;1.276;2023-04-24T12:52:24;33.90;48.00
31979;DHT22;18502;43.574;1.276;2023-04-24T12:54:53;36.80;41.30
31979;DHT22;18502;43.574;1.276;2023-04-24T12:57:19;33.10;42.10
31979;DHT22;18502;43.574;1.276;2023-04-24T12:59:44;34.90;40.80
31979;DHT22;18502;43.574;1.276;2023-04-24T13:02:11;30.80;43.10
31979;DHT22;18502;43.574;1.276;2023-04-24T13:04:36;28.30;46.20
31979;DHT22;18502;43.574;1.276;2023-04-24T13:07:02;26.60;51.50
31979;DHT22;18502;43.574;1.276;2023-04-24T13:09:28;25.60;54.80
31979;DHT22;18502;43.574;1.276;2023-04-24T13:11:55;24.60;60.30
31979;DHT22;18502;43.574;1.276;2023-04-24T13:14:22;24.20;59.60
31979;DHT22;18502;43.574;1.276;2023-04-24T13:16:48;24.10;59.40
31979;DHT22;18502;43.574;1.276;2023-04-24T13:19:13;22.90;63.70
31979;DHT22;18502;43.574;1.276;2023-04-24T13:21:40;22.30;66.00
31979;DHT22;18502;43.574;1.276;2023-04-24T13:24:06;21.90;68.50
31979;DHT22;18502;43.574;1.276;2023-04-24T13:26:33;22.60;65.30
31979;DHT22;18502;43.574;1.276;2023-04-24T13:28:59;23.90;62.60
31979;DHT22;18502;43.574;1.276;2023-04-24T13:31:24;25.10;62.10
31979;DHT22;18502;43.574;1.276;2023-04-24T13:33:50;26.70;59.20
31979;DHT22;18502;43.574;1.276;2023-04-24T13:36:16;27.40;56.30
31979;DHT22;18502;43.574;1.276;2023-04-24T13:38:43;28.10;55.10
31979;DHT22;18502;43.574;1.276;2023-04-24T13:41:10;30.50;51.10
31979;DHT22;18502;43.574;1.276;2023-04-24T13:43:35;28.10;51.90
31979;DHT22;18502;43.574;1.276;2023-04-24T13:46:01;27.80;51.10
31979;DHT22;18502;43.574;1.276;2023-04-24T13:48:29;26.60;56.20
31979;DHT22;18502;43.574;1.276;2023-04-24T13:50:54;26.00;55.30
31979;DHT22;18502;43.574;1.276;2023-04-24T13:53:20;24.50;58.80
31979;DHT22;18502;43.574;1.276;2023-04-24T13:55:46;22.90;62.20
31979;DHT22;18502;43.574;1.276;2023-04-24T13:58:11;22.50;64.40
31979;DHT22;18502;43.574;1.276;2023-04-24T14:00:37;22.10;63.90
31979;DHT22;18502;43.574;1.276;2023-04-24T14:03:03;21.70;66.40
31979;DHT22;18502;43.574;1.276;2023-04-24T14:05:29;21.50;68.40
31979;DHT22;18502;43.574;1.276;2023-04-24T14:07:54;21.60;66.30
31979;DHT22;18502;43.574;1.276;2023-04-24T14:10:20;21.40;67.00
31979;DHT22;18502;43.574;1.276;2023-04-24T14:12:46;20.90;70.70
31979;DHT22;18502;43.574;1.276;2023-04-24T14:15:11;20.30;70.30
31979;DHT22;18502;43.574;1.276;2023-04-24T14:17:38;20.40;73.80
31979;DHT22;18502;43.574;1.276;2023-04-24T14:20:05;19.70;71.10
31979;DHT22;18502;43.574;1.276;2023-04-24T14:22:31;19.70;72.00
31979;DHT22;18502;43.574;1.276;2023-04-24T14:24:56;19.70;71.70
31979;DHT22;18502;43.574;1.276;2023-04-24T14:27:23;21.20;69.20
31979;DHT22;18502;43.574;1.276;2023-04-24T14:29:49;21.10;68.60
31979;DHT22;18502;43.574;1.276;2023-04-24T14:32:15;20.10;70.10
31979;DHT22;18502;43.574;1.276;2023-04-24T14:34:41;20.00;71.80
31979;DHT22;18502;43.574;1.276;2023-04-24T14:37:07;19.70;72.10
31979;DHT22;18502;43.574;1.276;2023-04-24T14:39:33;19.50;74.20
31979;DHT22;18502;43.574;1.276;2023-04-24T14:41:58;19.20;74.40
31979;DHT22;18502;43.574;1.276;2023-04-24T14:44:24;19.10;74.10
31979;DHT22;18502;43.574;1.276;2023-04-24T14:46:50;19.40;73.10
31979;DHT22;18502;43.574;1.276;2023-04-24T14:49:16;19.80;73.10
31979;DHT22;18502;43.574;1.276;2023-04-24T14:51:41;20.60;71.40
31979;DHT22;18502;43.574;1.276;2023-04-24T14:54:08;22.10;68.70
31979;DHT22;18502;43.574;1.276;2023-04-24T14:56:33;22.40;65.20
31979;DHT22;18502;43.574;1.276;2023-04-24T14:58:59;22.30;67.10
31979;DHT22;18502;43.574;1.276;2023-04-24T15:01:25;22.20;69.50
31979;DHT22;18502;43.574;1.276;2023-04-24T15:03:50;21.40;67.90
31979;DHT22;18502;43.574;1.276;2023-04-24T15:06:17;21.00;68.00
31979;DHT22;18502;43.574;1.276;2023-04-24T15:08:42;21.40;69.10
31979;DHT22;18502;43.574;1.276;2023-04-24T15:11:10;22.10;68.40
31979;DHT22;18502;43.574;1.276;2023-04-24T15:13:36;23.10;65.40
31979;DHT22;18502;43.574;1.276;2023-04-24T15:16:01;24.30;60.20
31979;DHT22;18502;43.574;1.276;2023-04-24T15:18:27;23.50;63.00
31979;DHT22;18502;43.574;1.276;2023-04-24T15:20:55;23.30;61.10
31979;DHT22;18502;43.574;1.276;2023-04-24T15:23:20;22.60;64.70
31979;DHT22;18502;43.574;1.276;2023-04-24T15:25:46;21.10;65.20
31979;DHT22;18502;43.574;1.276;2023-04-24T15:28:12;21.00;66.30
31979;DHT22;18502;43.574;1.276;2023-04-24T15:30:38;22.40;66.40
31979;DHT22;18502;43.574;1.276;2023-04-24T15:33:03;22.50;65.30
31979;DHT22;18502;43.574;1.276;2023-04-24T15:35:29;22.60;65.10
31979;DHT22;18502;43.574;1.276;2023-04-24T15:37:55;22.40;63.90
31979;DHT22;18502;43.574;1.276;2023-04-24T15:40:21;21.20;64.50
31979;DHT22;18502;43.574;1.276;2023-04-24T15:42:48;21.40;67.50